createdAt,value
2024-05-09T00:00:02.239Z,98606.06
2024-05-09T00:02:31.829Z,98618.38
2024-05-09T00:05:04.087Z,98614.03
2024-05-09T00:07:34.519Z,98608.66
2024-05-09T00:10:05.554Z,98613.09
2024-05-09T00:12:36.673Z,98614.28
2024-05-09T00:15:06.481Z,98612.25
2024-05-09T00:17:36.071Z,98606.94
2024-05-09T00:20:17.436Z,98606.03
2024-05-09T00:22:50.118Z,98603.25
2024-05-09T00:25:19.598Z,98605.47
2024-05-09T00:27:49.196Z,98601.25
2024-05-09T00:30:27.769Z,98601.63
2024-05-09T00:33:02.344Z,98596.16
2024-05-09T00:35:34.900Z,98590.97
2024-05-09T00:38:04.755Z,98593.06
2024-05-09T00:40:39.918Z,98596.22
2024-05-09T00:43:13.929Z,98600.75
2024-05-09T00:45:44.513Z,98590.53
2024-05-09T00:48:17.697Z,98599.44
2024-05-09T00:50:54.229Z,98594.22
2024-05-09T00:53:23.919Z,98601.34
2024-05-09T00:55:55.577Z,98593.31
2024-05-09T00:58:27.005Z,98597.34
2024-05-09T01:00:58.876Z,98602.72
2024-05-09T01:03:28.600Z,98602.06
2024-05-09T01:06:00.907Z,98593.00
2024-05-09T01:08:33.512Z,98593.00
2024-05-09T01:11:03.171Z,98599.09
2024-05-09T01:13:32.756Z,98597.09
2024-05-09T01:16:02.370Z,98602.97
2024-05-09T01:18:32.168Z,98597.66
2024-05-09T01:21:04.464Z,98595.00
2024-05-09T01:23:39.519Z,98607.03
2024-05-09T01:26:09.193Z,98609.06
2024-05-09T01:28:38.693Z,98597.16
2024-05-09T01:31:08.658Z,98606.28
2024-05-09T01:33:38.522Z,98605.78
2024-05-09T01:36:08.811Z,98596.19
2024-05-09T01:38:40.966Z,98604.47
2024-05-09T01:41:10.524Z,98602.28
2024-05-09T01:43:39.993Z,98606.94
2024-05-09T01:46:14.797Z,98607.66
2024-05-09T01:48:45.593Z,98608.16
2024-05-09T01:51:18.313Z,98609.38
2024-05-09T01:53:51.105Z,98608.66
2024-05-09T01:56:20.582Z,98598.31
2024-05-09T01:58:50.174Z,98608.88
2024-05-09T02:01:19.724Z,98611.03
2024-05-09T02:03:49.410Z,98595.25
2024-05-09T02:06:19.209Z,98598.63
2024-05-09T02:08:51.326Z,98600.28
2024-05-09T02:11:20.911Z,98590.25
2024-05-09T02:13:53.254Z,98605.94
2024-05-09T02:16:22.772Z,98603.47
2024-05-09T02:18:52.533Z,98604.03
2024-05-09T02:21:22.084Z,98611.88
2024-05-09T02:23:54.276Z,98614.09
2024-05-09T02:26:23.818Z,98603.53
2024-05-09T02:28:53.418Z,98607.41
2024-05-09T02:31:22.892Z,98610.47
2024-05-09T02:33:50.102Z,98605.97
2024-05-09T02:36:19.824Z,98611.97
2024-05-09T02:38:46.676Z,98608.63
2024-05-09T02:41:18.883Z,98613.66
2024-05-09T02:43:45.806Z,98609.50
2024-05-09T02:46:15.508Z,98608.81
2024-05-09T02:48:43.304Z,98605.97
2024-05-09T02:51:15.581Z,98600.28
2024-05-09T02:53:42.524Z,98612.19
2024-05-09T02:56:12.093Z,98607.34
2024-05-09T02:58:41.583Z,98608.81
2024-05-09T03:01:11.075Z,98607.47
2024-05-09T03:03:38.092Z,98611.16
2024-05-09T03:06:08.061Z,98612.50
2024-05-09T03:08:35.089Z,98613.19
2024-05-09T03:11:04.792Z,98619.22
2024-05-09T03:13:31.808Z,98610.53
2024-05-09T03:16:04.990Z,98614.56
2024-05-09T03:18:31.920Z,98623.94
2024-05-09T03:21:01.782Z,98618.25
2024-05-09T03:23:28.742Z,98622.44
2024-05-09T03:25:58.400Z,98613.25
2024-05-09T03:28:28.221Z,98619.94
2024-05-09T03:30:57.876Z,98623.09
2024-05-09T03:33:27.671Z,98611.41
2024-05-09T03:35:57.242Z,98615.59
2024-05-09T03:38:26.728Z,98617.41
2024-05-09T03:40:56.258Z,98619.59
2024-05-09T03:43:26.024Z,98620.78
2024-05-09T03:45:57.115Z,98616.09
2024-05-09T03:48:24.326Z,98626.00
2024-05-09T03:50:56.736Z,98618.28
2024-05-09T03:53:23.713Z,98627.34
2024-05-09T03:55:53.241Z,98620.31
2024-05-09T03:58:20.130Z,98619.97
2024-05-09T04:00:49.664Z,98615.44
2024-05-09T04:03:17.015Z,98628.84
2024-05-09T04:05:46.716Z,98619.97
2024-05-09T04:08:16.937Z,98626.50
2024-05-09T04:10:46.575Z,98626.50
2024-05-09T04:13:13.650Z,98622.97
2024-05-09T04:15:43.292Z,98624.97
2024-05-09T04:18:13.191Z,98622.66
2024-05-09T04:20:43.033Z,98629.69
2024-05-09T04:23:12.640Z,98620.97
2024-05-09T04:25:47.166Z,98625.47
2024-05-09T04:28:14.569Z,98627.66
2024-05-09T04:30:44.385Z,98622.28
2024-05-09T04:33:13.465Z,98626.66
2024-05-09T04:35:44.889Z,98622.13
2024-05-09T04:38:12.671Z,98619.47
2024-05-09T04:40:42.373Z,98619.31
2024-05-09T04:43:18.740Z,98626.78
2024-05-09T04:45:48.484Z,98632.69
2024-05-09T04:48:18.782Z,98632.13
2024-05-09T04:50:48.440Z,98636.97
2024-05-09T04:53:16.683Z,98629.75
2024-05-09T04:55:49.707Z,98625.91
2024-05-09T04:58:24.107Z,98626.81
2024-05-09T05:00:51.017Z,98607.22
2024-05-09T05:03:20.875Z,98595.22
2024-05-09T05:05:50.599Z,98581.44
2024-05-09T05:08:21.031Z,98585.25
2024-05-09T05:10:48.997Z,98557.69
2024-05-09T05:13:24.014Z,98555.19
2024-05-09T05:15:53.338Z,98522.75
2024-05-09T05:18:23.151Z,98534.91
2024-05-09T05:20:50.298Z,98581.47
2024-05-09T05:23:21.860Z,98574.16
2024-05-09T05:25:50.555Z,98579.00
2024-05-09T05:28:22.823Z,98578.72
2024-05-09T05:30:50.203Z,98570.22
2024-05-09T05:33:22.303Z,98589.84
2024-05-09T05:35:49.715Z,98561.38
2024-05-09T05:38:30.242Z,98588.78
2024-05-09T05:40:57.269Z,98579.81
2024-05-09T05:43:29.555Z,98577.31
2024-05-09T05:45:56.470Z,98592.00
2024-05-09T05:48:26.106Z,98592.66
2024-05-09T05:50:53.291Z,98568.41
2024-05-09T05:53:22.880Z,98568.53
2024-05-09T05:55:49.804Z,98587.63
2024-05-09T05:58:20.315Z,98597.81
2024-05-09T06:00:53.028Z,98605.47
2024-05-09T06:03:25.423Z,98567.53
2024-05-09T06:05:52.432Z,98570.34
2024-05-09T06:08:22.154Z,98565.63
2024-05-09T06:10:49.284Z,98556.91
2024-05-09T06:13:18.827Z,98582.72
2024-05-09T06:15:45.636Z,98570.66
2024-05-09T06:18:18.131Z,98595.25
2024-05-09T06:20:45.568Z,98597.66
2024-05-09T06:23:15.236Z,98610.56
2024-05-09T06:25:42.779Z,98602.09
2024-05-09T06:28:12.473Z,98619.41
2024-05-09T06:30:42.142Z,98610.22
2024-05-09T06:33:16.035Z,98626.00
2024-05-09T06:35:46.452Z,98615.75
2024-05-09T06:38:16.267Z,98631.06
2024-05-09T06:40:44.262Z,98631.78
2024-05-09T06:43:17.065Z,98610.31
2024-05-09T06:45:46.756Z,98638.06
2024-05-09T06:48:19.846Z,98635.72
2024-05-09T06:50:50.395Z,98640.19
2024-05-09T06:53:23.016Z,98638.38
2024-05-09T06:55:50.187Z,98644.78
2024-05-09T06:58:21.685Z,98647.69
2024-05-09T07:00:48.841Z,98648.44
2024-05-09T07:03:19.594Z,98661.41
2024-05-09T07:05:52.620Z,98660.41
2024-05-09T07:08:22.413Z,98660.72
2024-05-09T07:10:49.936Z,98657.13
2024-05-09T07:13:19.553Z,98668.91
2024-05-09T07:15:46.414Z,98676.19
2024-05-09T07:18:20.078Z,98666.81
2024-05-09T07:20:50.790Z,98662.69
2024-05-09T07:23:21.051Z,98655.91
2024-05-09T07:25:48.339Z,98668.94
2024-05-09T07:28:19.139Z,98662.81
2024-05-09T07:30:46.307Z,98673.06
2024-05-09T07:33:20.042Z,98675.34
2024-05-09T07:35:51.032Z,98663.31
2024-05-09T07:38:20.864Z,98678.97
2024-05-09T07:40:48.039Z,98670.72
2024-05-09T07:43:18.309Z,98677.03
2024-05-09T07:45:52.192Z,98677.97
2024-05-09T07:50:00.721Z,98674.84
2024-05-09T07:53:52.379Z,98676.75
2024-05-09T07:56:23.432Z,98675.09
2024-05-09T07:58:55.399Z,98675.06
2024-05-09T08:01:25.486Z,98690.38
2024-05-09T08:03:55.675Z,98672.06
2024-05-09T08:06:26.278Z,98672.75
2024-05-09T08:08:57.904Z,98676.72
2024-05-09T08:11:27.737Z,98679.81
2024-05-09T08:13:57.292Z,98677.44
2024-05-09T08:16:24.193Z,98686.19
2024-05-09T08:18:55.385Z,98683.97
2024-05-09T08:21:22.350Z,98672.00
2024-05-09T08:23:54.506Z,98684.03
2024-05-09T08:26:21.532Z,98693.69
2024-05-09T08:28:50.980Z,98683.50
2024-05-09T08:31:17.966Z,98676.16
2024-05-09T08:33:49.072Z,98678.16
2024-05-09T08:36:16.092Z,98680.38
2024-05-09T08:38:45.758Z,98676.94
2024-05-09T08:41:16.031Z,98661.97
2024-05-09T08:43:47.170Z,98665.03
2024-05-09T08:46:14.347Z,98660.09
2024-05-09T08:48:46.582Z,98663.00
2024-05-09T08:51:14.209Z,98666.75
2024-05-09T08:53:46.075Z,98665.31
2024-05-09T08:56:17.206Z,98656.34
2024-05-09T08:58:48.071Z,98668.59
2024-05-09T09:01:16.117Z,98650.94
2024-05-09T09:03:47.730Z,98650.34
2024-05-09T09:06:18.295Z,98649.31
2024-05-09T09:08:48.760Z,98657.22
2024-05-09T09:11:18.402Z,98657.81
2024-05-09T09:13:47.887Z,98655.34
2024-05-09T09:16:16.202Z,98646.16
2024-05-09T09:18:47.332Z,98628.44
2024-05-09T09:21:14.317Z,98648.44
2024-05-09T09:23:43.854Z,98654.19
2024-05-09T09:26:18.408Z,98652.16
2024-05-09T09:28:48.097Z,98651.97
2024-05-09T09:31:18.107Z,98649.84
2024-05-09T09:33:48.331Z,98654.78
2024-05-09T09:36:15.268Z,98649.22
2024-05-09T09:38:45.409Z,98649.63
2024-05-09T09:41:13.265Z,98640.09
2024-05-09T09:43:45.821Z,98655.31
2024-05-09T09:46:14.500Z,98659.06
2024-05-09T09:48:45.410Z,98652.84
2024-05-09T09:51:13.995Z,98665.31
2024-05-09T09:53:46.196Z,98659.63
2024-05-09T09:56:17.269Z,98644.72
2024-05-09T09:58:50.974Z,98649.94
2024-05-09T10:01:18.003Z,98649.44
2024-05-09T10:03:48.040Z,98649.53
2024-05-09T10:06:15.942Z,98647.91
2024-05-09T10:08:47.852Z,98660.31
2024-05-09T10:11:20.067Z,98640.88
2024-05-09T10:13:54.975Z,98652.72
2024-05-09T10:16:22.398Z,98651.75
2024-05-09T10:18:52.127Z,98647.84
2024-05-09T10:21:19.955Z,98648.63
2024-05-09T10:24:00.140Z,98622.69
2024-05-09T10:26:32.066Z,98624.31
2024-05-09T10:29:16.536Z,98622.63
2024-05-09T10:31:44.672Z,98628.78
2024-05-09T10:34:20.185Z,98617.28
2024-05-09T10:36:52.637Z,98628.19
2024-05-09T10:39:22.976Z,98623.44
2024-05-09T10:41:50.073Z,98628.84
2024-05-09T10:44:24.505Z,98628.44
2024-05-09T10:46:53.704Z,98631.66
2024-05-09T10:49:23.772Z,98621.47
2024-05-09T10:51:51.908Z,98603.00
2024-05-09T10:54:23.168Z,98612.69
2024-05-09T10:56:56.458Z,98595.97
2024-05-09T10:59:35.593Z,98595.25
2024-05-09T11:02:04.740Z,98588.81
2024-05-09T11:04:36.214Z,98581.00
2024-05-09T11:07:07.621Z,98573.97
2024-05-09T11:09:38.462Z,98574.75
2024-05-09T11:12:06.116Z,98589.16
2024-05-09T11:14:38.421Z,98575.88
2024-05-09T11:17:06.989Z,98577.63
2024-05-09T11:19:38.541Z,98557.25
2024-05-09T11:22:05.612Z,98577.69
2024-05-09T11:24:35.841Z,98567.75
2024-05-09T11:27:04.230Z,98558.38
2024-05-09T11:29:47.421Z,98571.38
2024-05-09T11:32:16.434Z,98551.81
2024-05-09T11:34:46.026Z,98553.03
2024-05-09T11:37:13.822Z,98552.03
2024-05-09T11:39:43.544Z,98538.41
2024-05-09T11:42:10.467Z,98558.41
2024-05-09T11:44:42.584Z,98547.81
2024-05-09T11:47:09.545Z,98558.09
2024-05-09T11:49:39.299Z,98553.88
2024-05-09T11:52:06.576Z,98553.13
2024-05-09T11:54:38.558Z,98536.28
2024-05-09T11:57:09.504Z,98537.66
2024-05-09T11:59:36.399Z,98534.84
2024-05-09T12:02:08.661Z,98527.25
2024-05-09T12:04:35.770Z,98531.03
2024-05-09T12:07:05.417Z,98516.28
2024-05-09T12:09:32.408Z,98532.16
2024-05-09T12:12:01.885Z,98525.31
2024-05-09T12:14:28.734Z,98511.31
2024-05-09T12:17:01.898Z,98510.63
2024-05-09T12:19:31.994Z,98513.78
2024-05-09T12:22:01.594Z,98521.22
2024-05-09T12:24:30.433Z,98511.31
2024-05-09T12:27:00.178Z,98522.50
2024-05-09T12:29:27.372Z,98514.50
2024-05-09T12:31:56.890Z,98509.06
2024-05-09T12:34:23.910Z,98507.56
2024-05-09T12:36:56.388Z,98520.31
2024-05-09T12:39:23.295Z,98511.72
2024-05-09T12:41:52.757Z,98503.16
2024-05-09T12:44:19.876Z,98500.66
2024-05-09T12:46:49.588Z,98514.88
2024-05-09T12:49:18.905Z,98488.38
2024-05-09T12:51:49.091Z,98495.59
2024-05-09T12:54:18.624Z,98493.56
2024-05-09T12:56:48.128Z,98486.63
2024-05-09T12:59:14.982Z,98479.53
2024-05-09T13:01:44.556Z,98481.06
2024-05-09T13:04:11.626Z,98471.00
2024-05-09T13:06:41.236Z,98470.56
2024-05-09T13:09:08.131Z,98472.22
2024-05-09T13:11:40.443Z,98468.50
2024-05-09T13:14:07.318Z,98472.31
2024-05-09T13:16:38.918Z,98471.16
2024-05-09T13:19:06.072Z,98473.69
2024-05-09T13:21:35.659Z,98458.47
2024-05-09T13:24:02.568Z,98468.44
2024-05-09T13:26:32.079Z,98477.88
2024-05-09T13:29:01.564Z,98444.81
2024-05-09T13:31:31.122Z,98438.75
2024-05-09T13:33:58.336Z,98453.25
2024-05-09T13:36:28.218Z,98443.41
2024-05-09T13:38:56.531Z,98448.88
2024-05-09T13:41:26.053Z,98445.59
2024-05-09T13:43:53.574Z,98444.66
2024-05-09T13:46:25.779Z,98444.31
2024-05-09T13:48:52.790Z,98435.59
2024-05-09T13:51:22.345Z,98438.31
2024-05-09T13:53:51.902Z,98428.63
2024-05-09T13:56:18.820Z,98425.56
2024-05-09T13:58:50.461Z,98426.91
2024-05-09T14:01:17.439Z,98425.69
2024-05-09T14:03:49.887Z,98419.78
2024-05-09T14:06:16.856Z,98426.78
2024-05-09T14:08:46.404Z,98424.16
2024-05-09T14:11:13.456Z,98429.56
2024-05-09T14:13:43.058Z,98414.09
2024-05-09T14:16:10.059Z,98417.16
2024-05-09T14:18:39.734Z,98413.50
2024-05-09T14:21:10.989Z,98407.72
2024-05-09T14:23:40.541Z,98400.72
2024-05-09T14:26:07.447Z,98395.38
2024-05-09T14:28:37.015Z,98398.25
2024-05-09T14:31:07.032Z,98393.16
2024-05-09T14:33:36.868Z,98389.50
2024-05-09T14:36:04.149Z,98386.28
2024-05-09T14:38:36.261Z,98387.97
2024-05-09T14:41:03.287Z,98373.41
2024-05-09T14:43:32.951Z,98366.59
2024-05-09T14:46:00.036Z,98383.88
2024-05-09T14:48:30.143Z,98372.44
2024-05-09T14:50:57.174Z,98365.25
2024-05-09T14:53:28.370Z,98380.75
2024-05-09T14:55:58.045Z,98382.16
2024-05-09T14:58:29.917Z,98362.13
2024-05-09T15:00:56.890Z,98357.63
2024-05-09T15:03:27.171Z,98366.28
2024-05-09T15:05:54.221Z,98368.16
2024-05-09T15:08:23.921Z,98359.59
2024-05-09T15:10:51.031Z,98345.50
2024-05-09T15:13:23.912Z,98350.09
2024-05-09T15:15:51.118Z,98355.06
2024-05-09T15:18:21.025Z,98347.25
2024-05-09T15:20:48.539Z,98335.13
2024-05-09T15:23:18.374Z,98339.53
2024-05-09T15:25:45.306Z,98335.41
2024-05-09T15:28:14.913Z,98329.09
2024-05-09T15:30:46.551Z,98335.81
2024-05-09T15:33:16.775Z,98353.41
2024-05-09T15:35:46.044Z,98345.72
2024-05-09T15:38:18.560Z,98345.31
2024-05-09T15:40:45.867Z,98332.81
2024-05-09T15:43:15.693Z,98345.16
2024-05-09T15:45:45.347Z,98342.03
2024-05-09T15:48:15.045Z,98328.78
2024-05-09T15:50:45.448Z,98327.47
2024-05-09T15:53:15.202Z,98339.69
2024-05-09T15:55:45.361Z,98327.66
2024-05-09T15:58:15.945Z,98326.66
2024-05-09T16:00:47.787Z,98329.03
2024-05-09T16:03:21.042Z,98331.19
2024-05-09T16:05:48.414Z,98326.81
2024-05-09T16:08:18.707Z,98337.28
2024-05-09T16:10:47.236Z,98336.38
2024-05-09T16:13:17.993Z,98323.13
2024-05-09T16:15:47.871Z,98341.06
2024-05-09T16:18:17.718Z,98321.59
2024-05-09T16:20:46.469Z,98316.16
2024-05-09T16:23:18.033Z,98321.47
2024-05-09T16:25:47.688Z,98328.84
2024-05-09T16:28:17.653Z,98319.22
2024-05-09T16:30:47.345Z,98332.84
2024-05-09T16:33:19.457Z,98325.63
2024-05-09T16:35:46.864Z,98331.75
2024-05-09T16:38:16.476Z,98331.75
2024-05-09T16:40:43.568Z,98322.78
2024-05-09T16:43:14.473Z,98315.81
2024-05-09T16:45:44.851Z,98323.84
2024-05-09T16:48:17.332Z,98324.91
2024-05-09T16:50:47.130Z,98317.47
2024-05-09T16:53:16.592Z,98290.38
2024-05-09T16:55:43.595Z,98305.28
2024-05-09T16:58:16.238Z,98316.03
2024-05-09T17:00:44.259Z,98308.47
2024-05-09T17:03:17.486Z,98305.06
2024-05-09T17:05:46.791Z,98301.25
2024-05-09T17:08:18.446Z,98314.28
2024-05-09T17:10:45.639Z,98306.47
2024-05-09T17:13:18.338Z,98298.41
2024-05-09T17:15:48.440Z,98288.72
2024-05-09T17:18:21.111Z,98297.50
2024-05-09T17:20:51.443Z,98307.41
2024-05-09T17:23:18.456Z,98303.63
2024-05-09T17:25:50.999Z,98305.63
2024-05-09T17:28:20.521Z,98306.22
2024-05-09T17:30:50.347Z,98307.03
2024-05-09T17:33:20.118Z,98310.72
2024-05-09T17:35:50.386Z,98295.22
2024-05-09T17:38:17.677Z,98300.66
2024-05-09T17:40:47.239Z,98311.84
2024-05-09T17:43:14.344Z,98323.94
2024-05-09T17:45:43.982Z,98311.88
2024-05-09T17:48:12.074Z,98316.13
2024-05-09T17:50:44.872Z,98319.03
2024-05-09T17:53:11.945Z,98330.13
2024-05-09T17:55:42.781Z,98330.50
2024-05-09T17:58:10.299Z,98329.47
2024-05-09T18:00:42.161Z,98327.44
2024-05-09T18:03:11.972Z,98338.03
2024-05-09T18:05:48.137Z,98345.84
2024-05-09T18:08:15.110Z,98341.75
2024-05-09T18:10:45.231Z,98337.94
2024-05-09T18:13:13.262Z,98337.94
2024-05-09T18:15:44.884Z,98336.50
2024-05-09T18:18:12.782Z,98345.97
2024-05-09T18:20:46.249Z,98337.88
2024-05-09T18:23:15.784Z,98345.22
2024-05-09T18:25:49.721Z,98348.97
2024-05-09T18:28:17.480Z,98361.78
2024-05-09T18:30:47.552Z,98350.50
2024-05-09T18:33:15.003Z,98365.81
2024-05-09T18:35:48.764Z,98368.78
2024-05-09T18:38:16.114Z,98365.00
2024-05-09T18:40:49.656Z,98371.75
2024-05-09T18:43:17.207Z,98370.38
2024-05-09T18:45:47.522Z,98379.38
2024-05-09T18:48:14.762Z,98368.78
2024-05-09T18:50:47.056Z,98374.47
2024-05-09T18:53:14.123Z,98379.34
2024-05-09T18:55:44.295Z,98387.69
2024-05-09T18:58:13.978Z,98391.94
2024-05-09T19:00:46.029Z,98397.44
2024-05-09T19:03:15.843Z,98398.25
2024-05-09T19:05:48.750Z,98396.81
2024-05-09T19:08:15.936Z,98398.94
2024-05-09T19:10:46.353Z,98398.81
2024-05-09T19:13:14.507Z,98395.47
2024-05-09T19:15:44.902Z,98405.03
2024-05-09T19:18:12.591Z,98403.06
2024-05-09T19:20:42.595Z,98411.22
2024-05-09T19:23:12.293Z,98412.50
2024-05-09T19:25:42.095Z,98408.34
2024-05-09T19:28:09.233Z,98416.88
2024-05-09T19:30:41.806Z,98412.50
2024-05-09T19:33:11.125Z,98412.13
2024-05-09T19:35:41.959Z,98415.84
2024-05-09T19:38:12.094Z,98416.16
2024-05-09T19:40:41.951Z,98416.16
2024-05-09T19:43:09.316Z,98416.16
2024-05-09T19:45:39.243Z,98414.69
2024-05-09T19:48:07.301Z,98417.22
2024-05-09T19:50:42.530Z,98417.88
2024-05-09T19:53:14.347Z,98412.66
2024-05-09T19:55:44.740Z,98408.91
2024-05-09T19:58:12.816Z,98421.00
2024-05-09T20:00:44.170Z,98418.09
2024-05-09T20:03:12.762Z,98419.34
2024-05-09T20:05:42.814Z,98420.00
2024-05-09T20:08:10.057Z,98417.09
2024-05-09T20:10:42.285Z,98418.78
2024-05-09T20:13:09.434Z,98420.03
2024-05-09T20:15:39.943Z,98422.34
2024-05-09T20:18:07.576Z,98425.47
2024-05-09T20:20:41.596Z,98425.47
2024-05-09T20:23:11.254Z,98424.88
2024-05-09T20:25:44.973Z,98420.50
2024-05-09T20:28:12.020Z,98428.19
2024-05-09T20:30:41.816Z,98425.91
2024-05-09T20:33:09.767Z,98436.72
2024-05-09T20:35:39.568Z,98425.09
2024-05-09T20:38:06.732Z,98422.81
2024-05-09T20:40:38.910Z,98424.91
2024-05-09T20:43:10.348Z,98422.84
2024-05-09T20:45:40.762Z,98420.94
2024-05-09T20:48:09.307Z,98414.72
2024-05-09T20:50:41.619Z,98419.47
2024-05-09T20:53:11.275Z,98419.50
2024-05-09T20:55:41.401Z,98418.84
2024-05-09T20:58:11.293Z,98418.63
2024-05-09T21:00:44.196Z,98418.44
2024-05-09T21:03:15.227Z,98422.16
2024-05-09T21:05:46.773Z,98423.84
2024-05-09T21:08:14.262Z,98417.63
2024-05-09T21:10:44.392Z,98416.59
2024-05-09T21:13:14.121Z,98419.47
2024-05-09T21:15:46.710Z,98418.00
2024-05-09T21:18:13.681Z,98419.88
2024-05-09T21:20:43.162Z,98421.56
2024-05-09T21:23:10.141Z,98419.06
2024-05-09T21:25:41.393Z,98420.91
2024-05-09T21:28:08.352Z,98416.97
2024-05-09T21:30:42.830Z,98417.78
2024-05-09T21:33:12.805Z,98416.75
2024-05-09T21:35:44.513Z,98414.66
2024-05-09T21:38:13.535Z,98414.88
2024-05-09T21:40:43.526Z,98417.53
2024-05-09T21:43:10.582Z,98421.31
2024-05-09T21:45:43.073Z,98425.84
2024-05-09T21:48:13.181Z,98420.88
2024-05-09T21:50:42.982Z,98413.84
2024-05-09T21:53:10.265Z,98422.94
2024-05-09T21:55:39.980Z,98412.56
2024-05-09T21:58:06.990Z,98413.34
2024-05-09T22:00:39.383Z,98415.44
2024-05-09T22:03:10.931Z,98413.34
2024-05-09T22:05:44.145Z,98415.44
2024-05-09T22:08:11.533Z,98420.78
2024-05-09T22:10:41.269Z,98418.94
2024-05-09T22:13:08.794Z,98420.59
2024-05-09T22:15:40.538Z,98417.91
2024-05-09T22:18:11.453Z,98415.38
2024-05-09T22:20:45.235Z,98418.31
2024-05-09T22:23:13.587Z,98414.09
2024-05-09T22:25:43.301Z,98420.53
2024-05-09T22:28:10.492Z,98429.00
2024-05-09T22:30:40.572Z,98418.41
2024-05-09T22:33:11.696Z,98420.66
2024-05-09T22:35:41.941Z,98427.06
2024-05-09T22:38:09.001Z,98428.28
2024-05-09T22:40:46.777Z,98424.38
2024-05-09T22:43:18.367Z,98426.66
2024-05-09T22:45:48.905Z,98430.34
2024-05-09T22:48:19.097Z,98426.22
2024-05-09T22:50:48.745Z,98434.47
2024-05-09T22:53:15.758Z,98430.94
2024-05-09T22:55:45.256Z,98430.09
2024-05-09T22:58:12.414Z,98436.69
2024-05-09T23:00:42.044Z,98428.81
2024-05-09T23:03:09.184Z,98438.34
2024-05-09T23:05:41.304Z,98432.94
2024-05-09T23:08:10.911Z,98431.47
2024-05-09T23:10:40.422Z,98431.47
2024-05-09T23:13:08.248Z,98426.69
2024-05-09T23:15:39.363Z,98426.19
2024-05-09T23:18:06.632Z,98429.03
2024-05-09T23:20:39.160Z,98426.63
2024-05-09T23:23:11.413Z,98419.97
2024-05-09T23:25:42.158Z,98419.34
2024-05-09T23:28:09.375Z,98410.84
2024-05-09T23:30:40.823Z,98422.03
2024-05-09T23:33:10.477Z,98411.47
2024-05-09T23:35:40.492Z,98415.53
2024-05-09T23:38:10.031Z,98414.31
2024-05-09T23:40:41.347Z,98420.25
2024-05-09T23:43:09.761Z,98411.97
2024-05-09T23:45:40.019Z,98411.19
2024-05-09T23:48:08.040Z,98410.59
2024-05-09T23:50:39.523Z,98411.47
2024-05-09T23:53:10.843Z,98413.28
2024-05-09T23:55:41.275Z,98410.16
2024-05-09T23:58:08.357Z,98408.09
